Time;durP1;ratioP1;P1;durP2;ratioP2;P2;SDS_P1;SDS_P2;PMS_P1;PMS_P2;Temp;Humidity;BMP_temperature;BMP_pressure;BME280_temperature;BME280_humidity;BME280_pressure;Samples;Min_cycle;Max_cycle;Signal;HPM_P1;HPM_P2
2023/05/18 00:01:18;;;;;;;4.68;2.35;;;;;;;-148.88;94.68;-17125.47;4994098;28;20054;-74
2023/05/18 00:03:43;;;;;;;5.38;2.42;;;;;;;-148.88;95.32;-17125.47;4976399;28;20023;-73
2023/05/18 00:06:09;;;;;;;5.72;2.20;;;;;;;-148.88;95.38;-17125.47;4993915;28;20069;-74
2023/05/18 00:08:36;;;;;;;6.85;2.78;;;;;;;-148.88;95.69;-17125.47;4993860;28;20027;-74
2023/05/18 00:11:03;;;;;;;8.50;2.83;;;;;;;-148.88;95.08;-17125.47;4994304;28;20053;-73
2023/05/18 00:13:29;;;;;;;8.45;3.00;;;;;;;-148.88;95.50;-17125.47;4993778;28;20030;-73
2023/05/18 00:15:55;;;;;;;7.97;2.72;;;;;;;-148.88;95.09;-17125.47;4976066;28;20034;-74
2023/05/18 00:18:22;;;;;;;8.20;2.97;;;;;;;-148.88;94.49;-17125.47;4975905;28;20030;-74
2023/05/18 00:20:57;;;;;;;9.82;3.72;;;;;;;-148.88;94.70;-17125.47;4993455;28;20026;-73
2023/05/18 00:23:28;;;;;;;6.57;2.78;;;;;;;-148.88;94.41;-17125.47;4993727;28;20092;-74
2023/05/18 00:25:57;;;;;;;5.85;2.42;;;;;;;-148.88;94.59;-17125.47;4993340;28;20069;-74
2023/05/18 00:28:22;;;;;;;14.30;2.97;;;;;;;-148.88;94.92;-17125.47;4975788;28;20489;-73
2023/05/18 00:30:48;;;;;;;8.45;2.72;;;;;;;-148.88;94.66;-17125.47;4993373;28;20108;-73
2023/05/18 00:33:13;;;;;;;5.40;2.47;;;;;;;-148.88;95.28;-17125.47;4993281;28;20026;-73
2023/05/18 00:35:38;;;;;;;7.72;2.50;;;;;;;-148.88;94.92;-17125.47;4993496;28;20088;-73
2023/05/18 00:38:04;;;;;;;6.68;2.45;;;;;;;-148.88;95.02;-17125.47;4993662;28;20153;-73
2023/05/18 00:40:29;;;;;;;8.43;3.17;;;;;;;-148.88;94.87;-17125.47;4993253;28;20026;-73
2023/05/18 00:42:55;;;;;;;4.50;2.25;;;;;;;-148.88;95.38;-17125.47;4993143;28;20022;-73
2023/05/18 00:45:20;;;;;;;7.43;2.60;;;;;;;-148.88;95.62;-17125.47;4992923;28;20026;-74
2023/05/18 00:47:47;;;;;;;9.52;3.72;;;;;;;-148.88;95.69;-17125.47;4992906;28;20508;-74
2023/05/18 00:50:12;;;;;;;8.98;3.00;;;;;;;-148.88;95.52;-17125.47;4992907;28;20026;-73
2023/05/18 00:52:38;;;;;;;7.53;2.95;;;;;;;-148.88;95.83;-17125.47;4992909;28;20037;-73
2023/05/18 00:55:05;;;;;;;12.38;3.70;;;;;;;-148.88;94.65;-17125.47;4992734;28;20027;-74
2023/05/18 00:57:32;;;;;;;5.82;2.58;;;;;;;-148.88;94.84;-17125.47;4975274;28;20022;-74
2023/05/18 00:59:58;;;;;;;8.20;2.40;;;;;;;-148.88;94.93;-17125.47;4975196;28;20032;-74
2023/05/18 01:02:23;;;;;;;7.70;2.72;;;;;;;-148.88;95.31;-17125.47;4992785;28;20080;-73
2023/05/18 01:04:51;;;;;;;9.95;3.03;;;;;;;-148.88;95.50;-17125.47;4992725;28;20018;-74
2023/05/18 01:07:16;;;;;;;7.32;3.03;;;;;;;-148.88;94.99;-17125.47;4992929;28;20026;-73
2023/05/18 01:09:42;;;;;;;5.95;2.30;;;;;;;-148.88;95.47;-17125.47;4975504;28;20030;-73
2023/05/18 01:12:48;;;;;;;7.20;2.83;;;;;;;-148.88;94.92;-17125.47;4993058;28;20026;-73
2023/05/18 01:15:21;;;;;;;11.35;3.28;;;;;;;-148.88;96.77;-17125.47;4879307;29;20064;-74
2023/05/18 01:18:20;;;;;;;4.63;2.42;;;;;;;-148.88;97.05;-17125.47;4981202;28;20045;-73
2023/05/18 01:20:48;;;;;;;7.03;2.88;;;;;;;-148.88;97.20;-17125.47;4992676;28;20056;-73
2023/05/18 01:23:28;;;;;;;7.57;2.80;;;;;;;-148.88;97.10;-17125.47;4992577;28;20496;-73
2023/05/18 01:25:53;;;;;;;11.05;3.53;;;;;;;-148.88;96.69;-17125.47;4975093;28;20532;-74
2023/05/18 01:28:26;;;;;;;5.72;3.05;;;;;;;-148.88;96.71;-17125.47;4992516;28;20030;-74
2023/05/18 01:30:52;;;;;;;9.70;2.92;;;;;;;-148.88;95.53;-17125.47;4975006;28;20486;-73
2023/05/18 01:33:17;;;;;;;8.43;2.90;;;;;;;-148.88;96.57;-17125.47;4975086;28;20038;-74
2023/05/18 01:35:49;;;;;;;7.13;2.50;;;;;;;-148.88;96.85;-17125.47;5009340;22;20046;-74
2023/05/18 01:38:23;;;;;;;9.40;2.63;;;;;;;-148.88;97.80;-17125.47;4992715;28;20023;-74
2023/05/18 01:40:55;;;;;;;7.38;2.90;;;;;;;-148.88;100.00;-17125.47;4992518;28;20038;-73
2023/05/18 01:43:26;;;;;;;7.43;3.20;;;;;;;-148.88;100.00;-17125.47;4975467;28;20042;-73
2023/05/18 01:45:56;;;;;;;9.80;3.13;;;;;;;-148.88;100.00;-17125.47;4994816;28;20026;-73
2023/05/18 01:48:24;;;;;;;6.93;2.97;;;;;;;-148.88;100.00;-17125.47;4996098;28;20054;-73
2023/05/18 01:50:54;;;;;;;16.67;3.65;;;;;;;-148.88;100.00;-17125.47;4996022;28;20037;-73
2023/05/18 01:53:30;;;;;;;8.10;3.67;;;;;;;-148.88;100.00;-17125.47;4978572;28;20022;-73
2023/05/18 01:55:57;;;;;;;7.18;3.10;;;;;;;-148.88;100.00;-17125.47;4978612;28;20019;-73
2023/05/18 01:58:25;;;;;;;11.50;3.60;;;;;;;-148.88;100.00;-17125.47;4978869;28;20101;-73
2023/05/18 02:00:50;;;;;;;7.78;3.10;;;;;;;-148.88;100.00;-17125.47;4996166;28;20588;-74
2023/05/18 02:03:16;;;;;;;6.32;2.97;;;;;;;-148.88;100.00;-17125.47;4978479;28;20121;-73
2023/05/18 02:05:41;;;;;;;6.55;2.92;;;;;;;-148.88;100.00;-17125.47;4996054;28;20029;-73
2023/05/18 02:08:06;;;;;;;12.10;3.58;;;;;;;-148.88;100.00;-17125.47;4978393;28;20024;-73
2023/05/18 02:10:32;;;;;;;10.02;3.55;;;;;;;-148.88;100.00;-17125.47;4995943;28;20022;-73
2023/05/18 02:12:57;;;;;;;11.57;4.30;;;;;;;-148.88;100.00;-17125.47;4978343;28;20117;-73
2023/05/18 02:15:22;;;;;;;9.60;3.45;;;;;;;-148.88;100.00;-17125.47;4978041;28;20069;-73
2023/05/18 02:17:48;;;;;;;6.05;3.17;;;;;;;-148.88;100.00;-17125.47;4995522;28;20080;-73
2023/05/18 02:20:17;;;;;;;9.27;3.65;;;;;;;-148.88;100.00;-17125.47;4995353;28;20026;-73
2023/05/18 02:22:43;;;;;;;8.23;3.05;;;;;;;-148.88;100.00;-17125.47;4995356;28;20018;-73
2023/05/18 02:25:08;;;;;;;10.40;3.95;;;;;;;-148.88;100.00;-17125.47;4995274;28;20101;-73
2023/05/18 02:27:35;;;;;;;10.45;3.33;;;;;;;-148.88;100.00;-17125.47;4995304;28;20114;-73
2023/05/18 02:30:03;;;;;;;8.80;3.70;;;;;;;-148.88;100.00;-17125.47;4995325;28;20544;-73
2023/05/18 02:32:31;;;;;;;7.43;3.20;;;;;;;-148.88;100.00;-17125.47;4995452;28;20030;-73
2023/05/18 02:34:56;;;;;;;9.98;3.17;;;;;;;-148.88;100.00;-17125.47;4995181;28;20440;-73
2023/05/18 02:37:22;;;;;;;5.38;2.50;;;;;;;-148.88;100.00;-17125.47;4995072;28;20510;-73
2023/05/18 02:39:48;;;;;;;5.32;2.80;;;;;;;-148.88;100.00;-17125.47;4995026;28;20101;-73
2023/05/18 02:42:13;;;;;;;5.78;2.70;;;;;;;-148.88;100.00;-17125.47;4977666;28;20029;-73
2023/05/18 02:44:40;;;;;;;7.40;2.90;;;;;;;-148.88;100.00;-17125.47;4994978;28;20030;-73
2023/05/18 02:47:06;;;;;;;6.22;2.83;;;;;;;-148.88;100.00;-17125.47;4994953;28;20022;-73
2023/05/18 02:49:32;;;;;;;7.72;3.15;;;;;;;-148.88;100.00;-17125.47;4994799;28;20496;-73
2023/05/18 02:51:57;;;;;;;6.03;2.55;;;;;;;-148.88;100.00;-17125.47;4995271;28;20030;-73
2023/05/18 02:54:23;;;;;;;5.93;2.97;;;;;;;-148.88;100.00;-17125.47;4977381;28;20037;-73
2023/05/18 02:56:48;;;;;;;9.45;3.00;;;;;;;-148.88;100.00;-17125.47;4993811;28;20477;-73
2023/05/18 02:59:14;;;;;;;10.82;3.75;;;;;;;-148.88;100.00;-17125.47;4994692;28;20026;-73
2023/05/18 03:01:39;;;;;;;10.02;3.65;;;;;;;-148.88;100.00;-17125.47;4994799;28;20106;-73
2023/05/18 03:04:05;;;;;;;7.70;3.22;;;;;;;-148.88;100.00;-17125.47;4977226;28;20508;-73
2023/05/18 03:06:30;;;;;;;11.60;3.20;;;;;;;-148.88;100.00;-17125.47;4994735;28;20026;-73
2023/05/18 03:08:55;;;;;;;7.53;3.28;;;;;;;-148.88;100.00;-17125.47;4977071;28;20036;-73
2023/05/18 03:11:22;;;;;;;10.05;2.63;;;;;;;-148.88;100.00;-17125.47;4994730;28;20028;-73
2023/05/18 03:13:48;;;;;;;8.90;3.35;;;;;;;-148.88;100.00;-17125.47;4994838;28;20018;-73
2023/05/18 03:16:14;;;;;;;11.75;3.55;;;;;;;-148.88;100.00;-17125.47;4994402;28;20124;-73
2023/05/18 03:18:40;;;;;;;9.80;3.03;;;;;;;-148.88;100.00;-17125.47;4994343;28;20023;-73
2023/05/18 03:21:06;;;;;;;9.00;2.95;;;;;;;-148.88;100.00;-17125.47;4977018;28;20030;-73
2023/05/18 03:23:32;;;;;;;11.90;3.25;;;;;;;-148.88;100.00;-17125.47;4994151;28;20054;-73
2023/05/18 03:26:02;;;;;;;8.32;3.20;;;;;;;-148.88;100.00;-17125.47;4994076;28;20053;-73
2023/05/18 03:28:29;;;;;;;9.35;3.08;;;;;;;-148.88;100.00;-17125.47;4994111;28;20061;-73
2023/05/18 03:30:55;;;;;;;9.55;3.15;;;;;;;-148.88;100.00;-17125.47;4994066;28;20022;-73
2023/05/18 03:33:20;;;;;;;6.47;2.83;;;;;;;-148.88;100.00;-17125.47;4994156;28;20105;-73
2023/05/18 03:35:48;;;;;;;8.15;3.05;;;;;;;-148.88;100.00;-17125.47;4976433;28;20031;-73
2023/05/18 03:38:13;;;;;;;6.15;2.95;;;;;;;-148.88;100.00;-17125.47;4993887;28;20508;-73
2023/05/18 03:40:38;;;;;;;8.38;2.75;;;;;;;-148.88;100.00;-17125.47;4993969;28;20038;-73
2023/05/18 03:43:04;;;;;;;6.68;3.10;;;;;;;-148.88;100.00;-17125.47;4994084;28;20469;-74
2023/05/18 03:45:29;;;;;;;6.45;2.92;;;;;;;-148.88;100.00;-17125.47;4993823;28;20027;-73
2023/05/18 03:47:55;;;;;;;8.98;3.35;;;;;;;-148.88;100.00;-17125.47;4994129;28;20401;-74
2023/05/18 03:50:21;;;;;;;4.95;2.60;;;;;;;-148.88;100.00;-17125.47;4993912;28;20109;-74
2023/05/18 03:52:46;;;;;;;12.30;3.95;;;;;;;-148.88;100.00;-17125.47;4994114;28;20029;-74
2023/05/18 03:55:12;;;;;;;11.30;3.13;;;;;;;-148.88;100.00;-17125.47;4994067;28;20549;-74
2023/05/18 03:57:37;;;;;;;10.05;4.60;;;;;;;-148.88;100.00;-17125.47;4976889;28;20386;-74
2023/05/18 04:00:07;;;;;;;6.65;3.08;;;;;;;-148.88;100.00;-17125.47;4993745;28;20114;-73
2023/05/18 04:02:32;;;;;;;5.72;2.42;;;;;;;-148.88;100.00;-17125.47;4976179;28;20477;-73
2023/05/18 04:04:58;;;;;;;8.40;3.20;;;;;;;-148.88;100.00;-17125.47;4975935;28;20030;-73
2023/05/18 04:07:23;;;;;;;5.78;2.95;;;;;;;-148.88;100.00;-17125.47;4993127;28;20060;-73
2023/05/18 04:09:50;;;;;;;7.85;3.20;;;;;;;-148.88;100.00;-17125.47;4993428;28;20493;-73
2023/05/18 04:12:16;;;;;;;5.80;3.05;;;;;;;-148.88;100.00;-17125.47;4993605;28;20053;-73
2023/05/18 04:14:41;;;;;;;7.20;3.30;;;;;;;-148.88;100.00;-17125.47;4993305;28;20053;-73
2023/05/18 04:17:07;;;;;;;8.27;3.35;;;;;;;-148.88;100.00;-17125.47;4993370;28;20022;-73
2023/05/18 04:19:33;;;;;;;8.35;3.03;;;;;;;-148.88;100.00;-17125.47;4993175;28;20084;-73
2023/05/18 04:21:59;;;;;;;12.70;3.60;;;;;;;-148.88;100.00;-17125.47;4993335;28;20374;-73
2023/05/18 04:24:25;;;;;;;7.60;3.10;;;;;;;-148.88;100.00;-17125.47;4993238;28;20448;-73
2023/05/18 04:26:52;;;;;;;6.63;3.00;;;;;;;-148.88;100.00;-17125.47;4993232;28;20027;-73
2023/05/18 04:29:17;;;;;;;8.68;3.25;;;;;;;-148.88;100.00;-17125.47;4993211;28;20068;-73
2023/05/18 04:31:46;;;;;;;13.25;3.65;;;;;;;-148.88;100.00;-17125.47;4993190;28;20108;-73
2023/05/18 04:34:12;;;;;;;10.10;3.35;;;;;;;-148.88;100.00;-17125.47;4975623;28;20030;-73
2023/05/18 04:36:38;;;;;;;10.07;3.17;;;;;;;-148.88;100.00;-17125.47;4993076;28;20397;-73
2023/05/18 04:39:05;;;;;;;6.45;2.85;;;;;;;-148.88;100.00;-17125.47;4992922;28;20069;-73
2023/05/18 04:41:32;;;;;;;9.07;3.40;;;;;;;-148.88;100.00;-17125.47;4975446;28;20023;-73
2023/05/18 04:43:59;;;;;;;7.82;3.47;;;;;;;-148.88;100.00;-17125.47;4992986;28;20030;-73
2023/05/18 04:46:25;;;;;;;6.05;3.10;;;;;;;-148.88;100.00;-17125.47;4992845;28;20137;-74
2023/05/18 04:48:52;;;;;;;9.68;3.42;;;;;;;-148.88;100.00;-17125.47;4975585;28;20018;-74
2023/05/18 04:51:20;;;;;;;7.47;3.10;;;;;;;-148.88;100.00;-17125.47;4993179;28;20405;-73
2023/05/18 04:53:51;;;;;;;6.80;3.40;;;;;;;-148.88;100.00;-17125.47;4993074;28;20025;-73
2023/05/18 04:56:19;;;;;;;8.63;2.78;;;;;;;-148.88;100.00;-17125.47;4992875;28;20080;-73
2023/05/18 04:58:46;;;;;;;7.60;3.40;;;;;;;-148.88;100.00;-17125.47;4992883;28;20049;-73
2023/05/18 05:01:14;;;;;;;10.25;4.63;;;;;;;-148.88;100.00;-17125.47;4975245;28;20089;-73
2023/05/18 05:03:40;;;;;;;9.95;4.00;;;;;;;-148.88;100.00;-17125.47;4992783;28;20033;-73
2023/05/18 05:06:05;;;;;;;8.23;4.15;;;;;;;-148.88;100.00;-17125.47;4992743;28;20026;-73
2023/05/18 05:08:31;;;;;;;15.07;4.53;;;;;;;-148.88;100.00;-17125.47;4992955;28;20181;-73
2023/05/18 05:10:56;;;;;;;7.43;3.47;;;;;;;-148.88;100.00;-17125.47;4993053;28;20042;-73
2023/05/18 05:13:21;;;;;;;13.00;4.47;;;;;;;-148.88;100.00;-17125.47;4992700;28;20038;-73
2023/05/18 05:15:47;;;;;;;9.05;3.17;;;;;;;-148.88;100.00;-17125.47;4992670;28;20018;-73
2023/05/18 05:18:12;;;;;;;6.32;3.40;;;;;;;-148.88;100.00;-17125.47;4992829;28;20072;-72
2023/05/18 05:20:37;;;;;;;8.00;3.55;;;;;;;-148.88;100.00;-17125.47;4994896;28;20038;-75
2023/05/18 05:23:03;;;;;;;12.90;3.58;;;;;;;-148.88;100.00;-17125.47;4996607;28;20066;-72
2023/05/18 05:25:28;;;;;;;11.95;4.38;;;;;;;-148.88;100.00;-17125.47;4980681;28;20022;-73
2023/05/18 05:27:53;;;;;;;11.38;2.90;;;;;;;-148.88;100.00;-17125.47;4979024;28;20022;-73
2023/05/18 05:30:19;;;;;;;10.15;3.42;;;;;;;-148.88;100.00;-17125.47;4996444;28;20052;-72
2023/05/18 05:32:45;;;;;;;10.13;3.95;;;;;;;-148.88;100.00;-17125.47;4996310;28;20416;-72
2023/05/18 05:35:10;;;;;;;11.90;3.60;;;;;;;-148.88;100.00;-17125.47;4996275;28;20033;-72
2023/05/18 05:37:35;;;;;;;9.25;3.50;;;;;;;-148.88;100.00;-17125.47;4996324;28;20034;-72
2023/05/18 05:40:02;;;;;;;13.23;3.88;;;;;;;-148.88;100.00;-17125.47;4996503;28;20030;-72
2023/05/18 05:42:28;;;;;;;9.68;3.72;;;;;;;-148.88;100.00;-17125.47;4978790;28;20026;-72
2023/05/18 05:44:54;;;;;;;8.35;3.50;;;;;;;-148.88;100.00;-17125.47;4996672;28;20030;-72
2023/05/18 05:47:19;;;;;;;13.70;3.30;;;;;;;-148.88;100.00;-17125.47;4996631;28;20034;-72
2023/05/18 05:49:45;;;;;;;9.90;3.53;;;;;;;-148.88;100.00;-17125.47;4978859;28;20441;-72
2023/05/18 05:52:10;;;;;;;9.75;3.30;;;;;;;-148.88;100.00;-17125.47;4978384;28;20023;-72
2023/05/18 05:54:36;;;;;;;8.48;2.85;;;;;;;-148.88;100.00;-17125.47;4995855;28;20026;-72
2023/05/18 05:57:02;;;;;;;10.55;3.28;;;;;;;-148.88;100.00;-17125.47;4978617;28;20049;-72
2023/05/18 05:59:28;;;;;;;9.32;3.10;;;;;;;-148.88;100.00;-17125.47;4995670;28;20085;-72
2023/05/18 06:01:55;;;;;;;8.02;3.28;;;;;;;-148.88;100.00;-17125.47;4995774;28;20026;-72
2023/05/18 06:04:20;;;;;;;19.80;3.78;;;;;;;-148.88;100.00;-17125.47;4995717;28;20027;-71
2023/05/18 06:06:47;;;;;;;5.50;2.95;;;;;;;-148.88;98.98;-17125.47;4995645;28;20052;-72
2023/05/18 06:09:12;;;;;;;10.02;2.85;;;;;;;-148.88;99.52;-17125.47;4995718;28;20026;-72
2023/05/18 06:11:38;;;;;;;10.20;3.17;;;;;;;-148.88;99.71;-17125.47;4995730;28;20033;-72
2023/05/18 06:14:04;;;;;;;9.05;3.30;;;;;;;-148.88;99.83;-17125.47;4995718;28;20030;-72
2023/05/18 06:16:29;;;;;;;6.47;2.47;;;;;;;-148.88;98.29;-17125.47;4995540;28;20050;-72
2023/05/18 06:18:54;;;;;;;13.00;2.60;;;;;;;-148.88;96.88;-17125.47;4995478;28;20024;-72
2023/05/18 06:21:20;;;;;;;7.93;2.47;;;;;;;-148.88;96.55;-17125.47;4995667;28;20018;-72
2023/05/18 06:23:45;;;;;;;7.78;3.80;;;;;;;-148.88;96.20;-17125.47;4995512;28;20125;-72
2023/05/18 06:26:11;;;;;;;8.18;2.95;;;;;;;-148.88;96.16;-17125.47;4977804;28;20022;-72
2023/05/18 06:28:36;;;;;;;8.60;2.22;;;;;;;-148.88;94.75;-17125.47;4995269;28;20478;-72
2023/05/18 06:31:02;;;;;;;6.43;2.15;;;;;;;-148.88;95.45;-17125.47;4995013;28;20018;-72
2023/05/18 06:33:27;;;;;;;6.60;2.45;;;;;;;-148.88;94.18;-17125.47;4995174;28;20026;-73
2023/05/18 06:35:53;;;;;;;4.60;1.98;;;;;;;-148.88;91.95;-17125.47;4994857;28;20034;-72
2023/05/18 06:38:18;;;;;;;7.90;2.75;;;;;;;-148.88;88.16;-17125.47;4994995;28;20022;-72
2023/05/18 06:40:44;;;;;;;13.45;2.30;;;;;;;-148.88;89.83;-17125.47;4995208;28;20038;-72
2023/05/18 06:43:09;;;;;;;4.82;1.63;;;;;;;-148.88;85.99;-17125.47;4995179;28;20520;-72
2023/05/18 06:45:35;;;;;;;6.40;2.20;;;;;;;-148.88;86.42;-17125.47;4994883;28;20049;-72
2023/05/18 06:48:00;;;;;;;6.68;2.55;;;;;;;-148.88;88.70;-17125.47;4995265;28;20033;-72
2023/05/18 06:50:25;;;;;;;8.32;2.10;;;;;;;-148.88;89.92;-17125.47;4994830;28;20022;-72
2023/05/18 06:52:51;;;;;;;4.05;2.22;;;;;;;-148.88;86.57;-17125.47;4994832;28;20065;-72
2023/05/18 06:55:16;;;;;;;6.07;1.90;;;;;;;-148.88;85.94;-17125.47;4995046;28;20091;-72
2023/05/18 06:57:42;;;;;;;5.75;1.98;;;;;;;-148.88;86.02;-17125.47;4994766;28;20057;-73
2023/05/18 07:00:09;;;;;;;7.90;1.80;;;;;;;-148.88;83.97;-17125.47;4977305;28;20022;-73
2023/05/18 07:02:34;;;;;;;5.00;1.90;;;;;;;-148.88;82.31;-17125.47;4994694;28;20543;-72
2023/05/18 07:05:00;;;;;;;7.85;2.13;;;;;;;-148.88;84.50;-17125.47;4994513;28;20030;-72
2023/05/18 07:07:26;;;;;;;11.07;2.75;;;;;;;-148.88;81.33;-17125.47;4994630;28;20019;-72
2023/05/18 07:09:53;;;;;;;11.45;2.47;;;;;;;-148.88;81.98;-17125.47;4994571;28;20026;-72
2023/05/18 07:12:19;;;;;;;8.38;1.70;;;;;;;-148.88;80.58;-17125.47;4994455;28;20026;-72
2023/05/18 07:14:44;;;;;;;8.73;2.25;;;;;;;-148.88;79.20;-17125.47;4994615;28;20037;-72
2023/05/18 07:17:10;;;;;;;15.43;2.55;;;;;;;-148.88;79.09;-17125.47;4994300;28;20029;-72
2023/05/18 07:19:35;;;;;;;7.28;2.30;;;;;;;-148.88;80.92;-17125.47;4994564;28;20418;-72
2023/05/18 07:22:03;;;;;;;9.85;2.70;;;;;;;-148.88;79.30;-17125.47;4994358;28;20354;-72
2023/05/18 07:24:29;;;;;;;8.25;2.10;;;;;;;-148.88;77.80;-17125.47;4994194;28;20114;-71
2023/05/18 07:26:54;;;;;;;14.82;2.63;;;;;;;-148.88;80.52;-17125.47;4994226;28;20101;-71
2023/05/18 07:29:20;;;;;;;4.93;1.80;;;;;;;-148.88;77.43;-17125.47;4994507;28;20022;-72
2023/05/18 07:31:45;;;;;;;7.05;1.67;;;;;;;-148.88;77.75;-17125.47;4976753;28;20529;-73
2023/05/18 07:34:10;;;;;;;5.55;1.73;;;;;;;-148.88;76.94;-17125.47;4994496;28;20037;-72
2023/05/18 07:36:36;;;;;;;5.35;2.33;;;;;;;-148.88;74.63;-17125.47;4994469;28;20070;-72
2023/05/18 07:39:02;;;;;;;11.55;3.20;;;;;;;-148.88;77.13;-17125.47;4994354;28;20117;-72
2023/05/18 07:41:27;;;;;;;4.97;2.20;;;;;;;-148.88;77.22;-17125.47;4993974;28;20060;-72
2023/05/18 07:43:53;;;;;;;13.75;3.08;;;;;;;-148.88;78.61;-17125.47;4993541;28;20106;-72
2023/05/18 07:46:18;;;;;;;7.13;2.33;;;;;;;-148.88;76.22;-17125.47;4993775;28;20030;-71
2023/05/18 07:48:45;;;;;;;7.15;2.38;;;;;;;-148.88;80.03;-17125.47;4976362;28;20042;-73
2023/05/18 07:51:11;;;;;;;10.48;3.08;;;;;;;-148.88;74.21;-17125.47;4993830;28;20057;-72
2023/05/18 07:53:36;;;;;;;11.23;2.15;;;;;;;-148.88;75.03;-17125.47;4976197;28;20022;-72
2023/05/18 07:56:03;;;;;;;10.32;1.95;;;;;;;-148.88;77.63;-17125.47;4993570;28;20081;-72
2023/05/18 07:58:28;;;;;;;8.05;2.38;;;;;;;-148.88;79.23;-17125.47;4993756;28;20393;-73
2023/05/18 08:00:53;;;;;;;9.90;3.00;;;;;;;-148.88;72.70;-17125.47;4993564;28;20536;-72
2023/05/18 08:03:19;;;;;;;7.32;2.35;;;;;;;-148.88;73.55;-17125.47;4993627;28;20473;-72
2023/05/18 08:05:44;;;;;;;7.15;2.22;;;;;;;-148.88;75.64;-17125.47;4993594;28;20064;-73
2023/05/18 08:08:14;;;;;;;6.25;2.08;;;;;;;-148.88;76.45;-17125.47;4993877;28;20034;-72
2023/05/18 08:10:40;;;;;;;12.02;3.50;;;;;;;-148.88;74.81;-17125.47;4993826;28;20029;-72
2023/05/18 08:13:06;;;;;;;10.07;4.13;;;;;;;-148.88;77.61;-17125.47;4994002;28;20031;-73
2023/05/18 08:15:31;;;;;;;10.40;3.60;;;;;;;-148.88;77.36;-17125.47;4993366;28;20029;-72
2023/05/18 08:17:57;;;;;;;7.03;2.03;;;;;;;-148.88;78.57;-17125.47;4993282;28;20038;-72
2023/05/18 08:20:24;;;;;;;10.65;3.67;;;;;;;-148.88;77.76;-17125.47;4993185;28;20516;-73
2023/05/18 08:22:49;;;;;;;9.00;2.50;;;;;;;-148.88;74.74;-17125.47;4993434;28;20425;-72
2023/05/18 08:25:15;;;;;;;11.38;2.88;;;;;;;-148.88;74.36;-17125.47;4993041;28;20473;-73
2023/05/18 08:27:40;;;;;;;9.50;3.25;;;;;;;-148.88;73.49;-17125.47;4993051;28;20049;-72
2023/05/18 08:30:07;;;;;;;9.18;3.42;;;;;;;-148.88;71.10;-17125.47;4975730;28;20014;-72
2023/05/18 08:32:35;;;;;;;23.38;3.65;;;;;;;-148.88;71.42;-17125.47;4993214;28;20022;-72
2023/05/18 08:35:03;;;;;;;12.20;3.92;;;;;;;-148.88;75.33;-17125.47;4993184;28;20070;-74
2023/05/18 08:37:28;;;;;;;10.82;2.63;;;;;;;-148.88;68.66;-17125.47;4993201;28;20417;-74
2023/05/18 08:39:54;;;;;;;13.75;2.53;;;;;;;-148.88;71.18;-17125.47;4993132;28;20023;-74
2023/05/18 08:42:29;;;;;;;8.25;2.60;;;;;;;-148.88;69.76;-17125.47;4993342;28;20092;-75
2023/05/18 08:45:06;;;;;;;12.32;3.33;;;;;;;-148.88;71.68;-17125.47;4993192;28;20031;-73
2023/05/18 08:47:35;;;;;;;11.38;3.55;;;;;;;-148.88;75.80;-17125.47;4993598;28;20026;-71
2023/05/18 08:50:01;;;;;;;9.35;3.80;;;;;;;-148.88;73.52;-17125.47;4993361;28;20022;-73
2023/05/18 08:52:34;;;;;;;7.40;3.03;;;;;;;-148.88;69.55;-17125.47;4992945;28;20027;-72
2023/05/18 08:55:01;;;;;;;5.93;2.58;;;;;;;-148.88;68.32;-17125.47;4993654;28;20080;-72
2023/05/18 08:57:29;;;;;;;8.77;3.25;;;;;;;-148.88;72.73;-17125.47;4996883;28;20493;-72
2023/05/18 08:59:56;;;;;;;11.95;3.25;;;;;;;-148.88;68.21;-17125.47;4979683;28;20489;-72
2023/05/18 09:02:23;;;;;;;14.40;4.22;;;;;;;-148.88;69.01;-17125.47;4997353;28;20026;-73
2023/05/18 09:04:48;;;;;;;9.25;3.50;;;;;;;-148.88;67.73;-17125.47;4979785;28;20027;-72
2023/05/18 09:07:14;;;;;;;12.10;3.30;;;;;;;-148.88;64.42;-17125.47;4996965;28;20045;-72
2023/05/18 09:09:40;;;;;;;10.05;3.58;;;;;;;-148.88;71.18;-17125.47;4979347;28;20029;-72
2023/05/18 09:12:07;;;;;;;10.48;3.13;;;;;;;-148.88;66.59;-17125.47;4997215;28;20457;-72
2023/05/18 09:14:32;;;;;;;10.88;3.30;;;;;;;-148.88;66.53;-17125.47;4996994;28;20022;-72
2023/05/18 09:16:58;;;;;;;11.93;3.53;;;;;;;-148.88;67.25;-17125.47;4996868;28;20030;-72
2023/05/18 09:19:25;;;;;;;9.18;3.25;;;;;;;-148.88;63.05;-17125.47;4997215;28;20110;-73
2023/05/18 09:21:51;;;;;;;10.07;3.40;;;;;;;-148.88;66.04;-17125.47;4978839;28;20405;-72
2023/05/18 09:24:18;;;;;;;10.13;3.28;;;;;;;-148.88;64.54;-17125.47;4997731;28;20519;-73
2023/05/18 09:26:43;;;;;;;11.80;3.67;;;;;;;-148.88;61.77;-17125.47;4984182;28;20024;-72
2023/05/18 09:29:17;;;;;;;9.07;3.00;;;;;;;-148.88;62.67;-17125.47;4997105;28;20097;-73
2023/05/18 09:31:43;;;;;;;;;;;;;;;-148.88;63.23;-17125.47;4997003;28;20026;-72
2023/05/18 09:34:08;;;;;;;7.40;3.42;;;;;;;-148.88;65.71;-17125.47;4996865;28;19910;-72
2023/05/18 09:36:34;;;;;;;7.22;3.08;;;;;;;-148.88;64.88;-17125.47;4996511;28;20412;-73
2023/05/18 09:39:07;;;;;;;8.68;3.13;;;;;;;-148.88;68.30;-17125.47;4963220;28;20113;-73
2023/05/18 09:41:32;;;;;;;7.80;3.28;;;;;;;-148.88;65.18;-17125.47;4996518;28;20500;-72
2023/05/18 09:43:58;;;;;;;7.43;2.95;;;;;;;-148.88;65.05;-17125.47;4996291;28;20018;-72
2023/05/18 09:46:23;;;;;;;10.98;3.15;;;;;;;-148.88;61.91;-17125.47;4996408;28;20042;-72
2023/05/18 09:48:51;;;;;;;8.60;3.50;;;;;;;-148.88;59.49;-17125.47;4996874;28;20053;-73
2023/05/18 09:51:17;;;;;;;8.93;3.20;;;;;;;-148.88;58.87;-17125.47;4996310;28;20409;-71
2023/05/18 09:53:57;;;;;;;9.38;3.30;;;;;;;-148.88;55.38;-17125.47;4978194;28;20461;-72
2023/05/18 09:56:24;;;;;;;9.68;3.20;;;;;;;-148.88;58.20;-17125.47;4978453;28;20081;-72
2023/05/18 09:58:50;;;;;;;11.13;3.08;;;;;;;-148.88;55.22;-17125.47;4995607;28;20441;-73
2023/05/18 10:01:15;;;;;;;7.53;3.28;;;;;;;-148.88;62.63;-17125.47;4995977;28;20477;-72
2023/05/18 10:03:41;;;;;;;8.90;3.08;;;;;;;-148.88;58.78;-17125.47;4996071;28;20084;-72
2023/05/18 10:06:08;;;;;;;10.13;3.50;;;;;;;-148.88;59.33;-17125.47;4994993;28;20023;-73
2023/05/18 10:08:34;;;;;;;9.40;3.08;;;;;;;-148.88;57.46;-17125.47;4978342;28;20026;-73
2023/05/18 10:11:00;;;;;;;7.45;3.50;;;;;;;-148.88;56.35;-17125.47;4995534;28;20118;-73
2023/05/18 10:13:30;;;;;;;9.02;3.08;;;;;;;-148.88;56.57;-17125.47;4995416;28;20105;-71
2023/05/18 10:16:00;;;;;;;7.30;2.53;;;;;;;-148.88;53.70;-17125.47;4995274;28;20041;-72
2023/05/18 10:18:30;;;;;;;9.25;3.25;;;;;;;-148.88;54.74;-17125.47;4995403;28;20023;-72
2023/05/18 10:20:58;;;;;;;8.85;3.15;;;;;;;-148.88;55.91;-17125.47;4995181;28;20029;-72
2023/05/18 10:23:25;;;;;;;8.98;3.00;;;;;;;-148.88;54.32;-17125.47;4995247;28;20092;-72
2023/05/18 10:25:52;;;;;;;8.65;2.72;;;;;;;-148.88;58.75;-17125.47;4995136;28;20053;-72
2023/05/18 10:28:26;;;;;;;9.52;3.60;;;;;;;-148.88;59.78;-17125.47;4977356;28;20022;-72
2023/05/18 10:30:53;;;;;;;9.27;3.58;;;;;;;-148.88;64.61;-17125.47;4995390;28;20046;-72
2023/05/18 10:33:21;;;;;;;9.98;3.95;;;;;;;-148.88;58.32;-17125.47;4977819;28;20054;-72
2023/05/18 10:35:48;;;;;;;8.80;3.50;;;;;;;-148.88;58.59;-17125.47;4995117;28;20033;-72
2023/05/18 10:38:23;;;;;;;9.27;3.78;;;;;;;-148.88;64.02;-17125.47;4978233;28;20509;-72
2023/05/18 10:40:52;;;;;;;9.80;3.20;;;;;;;-148.88;63.79;-17125.47;4995632;28;20026;-72
2023/05/18 10:43:19;;;;;;;7.22;3.08;;;;;;;-148.88;65.37;-17125.47;4977990;28;20045;-72
2023/05/18 10:45:47;;;;;;;9.65;3.50;;;;;;;-148.88;60.79;-17125.47;4995009;28;20023;-72
2023/05/18 10:48:14;;;;;;;7.05;3.45;;;;;;;-148.88;63.31;-17125.47;4977523;28;20033;-71
2023/05/18 10:50:40;;;;;;;9.60;3.78;;;;;;;-148.88;65.99;-17125.47;4995191;28;20057;-72
2023/05/18 10:53:08;;;;;;;9.00;3.35;;;;;;;-148.88;63.28;-17125.47;4995216;28;20030;-72
2023/05/18 10:55:34;;;;;;;8.88;3.60;;;;;;;-148.88;62.17;-17125.47;4994809;28;20034;-71
2023/05/18 10:58:06;;;;;;;12.40;3.78;;;;;;;-148.88;63.25;-17125.47;4994926;28;20026;-72
2023/05/18 11:00:37;;;;;;;9.43;3.45;;;;;;;-148.88;57.12;-17125.47;4977377;28;20500;-72
2023/05/18 11:03:08;;;;;;;8.90;3.10;;;;;;;-148.88;55.13;-17125.47;4994990;28;20026;-72